sensor_id;sensor_type;location;lat;lon;timestamp;temperature;humidity
14519;DHT22;7346;50.846;4.388;2022-08-01T00:02:21;21.40;99.90
14519;DHT22;7346;50.846;4.388;2022-08-01T00:04:48;21.40;99.90
14519;DHT22;7346;50.846;4.388;2022-08-01T00:07:15;21.30;99.90
14519;DHT22;7346;50.846;4.388;2022-08-01T00:09:44;21.40;99.90
14519;DHT22;7346;50.846;4.388;2022-08-01T00:12:11;21.40;99.90
14519;DHT22;7346;50.846;4.388;2022-08-01T00:14:37;21.40;99.90
14519;DHT22;7346;50.846;4.388;2022-08-01T00:17:04;21.30;99.90
14519;DHT22;7346;50.846;4.388;2022-08-01T00:19:31;21.20;99.90
14519;DHT22;7346;50.846;4.388;2022-08-01T00:21:58;21.30;99.90
14519;DHT22;7346;50.846;4.388;2022-08-01T00:24:25;21.20;99.90
14519;DHT22;7346;50.846;4.388;2022-08-01T00:26:54;21.20;99.90
14519;DHT22;7346;50.846;4.388;2022-08-01T00:29:20;21.30;99.90
14519;DHT22;7346;50.846;4.388;2022-08-01T00:31:47;21.30;99.90
14519;DHT22;7346;50.846;4.388;2022-08-01T00:34:17;21.30;99.90
14519;DHT22;7346;50.846;4.388;2022-08-01T00:36:44;21.40;99.90
14519;DHT22;7346;50.846;4.388;2022-08-01T00:39:12;21.40;99.90
14519;DHT22;7346;50.846;4.388;2022-08-01T00:41:39;21.30;99.90
14519;DHT22;7346;50.846;4.388;2022-08-01T00:44:07;21.30;99.90
14519;DHT22;7346;50.846;4.388;2022-08-01T00:46:34;21.40;99.90
14519;DHT22;7346;50.846;4.388;2022-08-01T00:49:02;21.40;99.90
14519;DHT22;7346;50.846;4.388;2022-08-01T00:51:29;21.40;99.90
14519;DHT22;7346;50.846;4.388;2022-08-01T00:53:56;21.30;99.90
14519;DHT22;7346;50.846;4.388;2022-08-01T00:56:25;21.20;99.90
14519;DHT22;7346;50.846;4.388;2022-08-01T00:58:53;21.10;99.90
14519;DHT22;7346;50.846;4.388;2022-08-01T01:01:22;21.00;99.90
14519;DHT22;7346;50.846;4.388;2022-08-01T01:03:49;20.90;99.90
14519;DHT22;7346;50.846;4.388;2022-08-01T01:06:31;20.90;99.90
14519;DHT22;7346;50.846;4.388;2022-08-01T01:09:15;21.00;99.90
14519;DHT22;7346;50.846;4.388;2022-08-01T01:11:47;21.00;99.90
14519;DHT22;7346;50.846;4.388;2022-08-01T01:14:22;21.10;99.90
14519;DHT22;7346;50.846;4.388;2022-08-01T01:16:53;21.00;99.90
14519;DHT22;7346;50.846;4.388;2022-08-01T01:19:24;21.00;99.90
14519;DHT22;7346;50.846;4.388;2022-08-01T01:22:24;21.00;99.90
14519;DHT22;7346;50.846;4.388;2022-08-01T01:25:07;21.00;99.90
14519;DHT22;7346;50.846;4.388;2022-08-01T01:27:42;20.90;99.90
14519;DHT22;7346;50.846;4.388;2022-08-01T01:30:13;21.00;99.90
14519;DHT22;7346;50.846;4.388;2022-08-01T01:32:44;21.00;99.90
14519;DHT22;7346;50.846;4.388;2022-08-01T01:35:15;21.10;99.90
14519;DHT22;7346;50.846;4.388;2022-08-01T01:37:45;21.20;99.90
14519;DHT22;7346;50.846;4.388;2022-08-01T01:40:14;21.00;99.90
14519;DHT22;7346;50.846;4.388;2022-08-01T01:42:42;21.00;99.90
14519;DHT22;7346;50.846;4.388;2022-08-01T01:45:10;20.90;99.90
14519;DHT22;7346;50.846;4.388;2022-08-01T01:47:40;20.80;99.90
14519;DHT22;7346;50.846;4.388;2022-08-01T01:50:08;20.80;99.90
14519;DHT22;7346;50.846;4.388;2022-08-01T01:52:39;20.80;99.90
14519;DHT22;7346;50.846;4.388;2022-08-01T01:55:08;20.70;99.90
14519;DHT22;7346;50.846;4.388;2022-08-01T01:57:39;20.70;99.90
14519;DHT22;7346;50.846;4.388;2022-08-01T02:00:08;20.60;99.90
14519;DHT22;7346;50.846;4.388;2022-08-01T02:02:39;20.60;99.90
14519;DHT22;7346;50.846;4.388;2022-08-01T02:05:09;20.50;99.90
14519;DHT22;7346;50.846;4.388;2022-08-01T02:07:37;20.50;99.90
14519;DHT22;7346;50.846;4.388;2022-08-01T02:10:06;20.50;99.90
14519;DHT22;7346;50.846;4.388;2022-08-01T02:12:36;20.50;99.90
14519;DHT22;7346;50.846;4.388;2022-08-01T02:15:05;20.60;99.90
14519;DHT22;7346;50.846;4.388;2022-08-01T02:17:39;20.70;99.90
14519;DHT22;7346;50.846;4.388;2022-08-01T02:20:08;20.80;99.90
14519;DHT22;7346;50.846;4.388;2022-08-01T02:22:40;20.90;99.90
14519;DHT22;7346;50.846;4.388;2022-08-01T02:25:11;20.90;99.90
14519;DHT22;7346;50.846;4.388;2022-08-01T02:27:43;20.90;99.90
14519;DHT22;7346;50.846;4.388;2022-08-01T02:30:13;20.80;99.90
14519;DHT22;7346;50.846;4.388;2022-08-01T02:32:45;20.70;99.90
14519;DHT22;7346;50.846;4.388;2022-08-01T02:35:20;20.60;99.90
14519;DHT22;7346;50.846;4.388;2022-08-01T02:37:48;20.60;99.90
14519;DHT22;7346;50.846;4.388;2022-08-01T02:40:17;20.50;99.90
14519;DHT22;7346;50.846;4.388;2022-08-01T02:42:47;20.50;99.90
14519;DHT22;7346;50.846;4.388;2022-08-01T02:45:18;20.60;99.90
14519;DHT22;7346;50.846;4.388;2022-08-01T02:47:48;20.60;99.90
14519;DHT22;7346;50.846;4.388;2022-08-01T02:50:16;20.60;99.90
14519;DHT22;7346;50.846;4.388;2022-08-01T02:52:46;20.70;99.90
14519;DHT22;7346;50.846;4.388;2022-08-01T02:55:14;20.70;99.90
14519;DHT22;7346;50.846;4.388;2022-08-01T02:57:42;20.60;99.90
14519;DHT22;7346;50.846;4.388;2022-08-01T03:00:11;20.60;99.90
14519;DHT22;7346;50.846;4.388;2022-08-01T03:02:39;20.60;99.90
14519;DHT22;7346;50.846;4.388;2022-08-01T03:05:09;20.50;99.90
14519;DHT22;7346;50.846;4.388;2022-08-01T03:07:36;20.50;99.90
14519;DHT22;7346;50.846;4.388;2022-08-01T03:10:05;20.60;99.90
14519;DHT22;7346;50.846;4.388;2022-08-01T03:12:33;20.50;99.90
14519;DHT22;7346;50.846;4.388;2022-08-01T03:15:02;20.50;99.90
14519;DHT22;7346;50.846;4.388;2022-08-01T03:17:30;20.50;99.90
14519;DHT22;7346;50.846;4.388;2022-08-01T03:20:00;20.50;99.90
14519;DHT22;7346;50.846;4.388;2022-08-01T03:22:32;20.60;99.90
14519;DHT22;7346;50.846;4.388;2022-08-01T03:25:01;20.60;99.90
14519;DHT22;7346;50.846;4.388;2022-08-01T03:27:29;20.50;99.90
14519;DHT22;7346;50.846;4.388;2022-08-01T03:29:58;20.50;99.90
14519;DHT22;7346;50.846;4.388;2022-08-01T03:32:27;20.50;99.90
14519;DHT22;7346;50.846;4.388;2022-08-01T03:34:54;20.60;99.90
14519;DHT22;7346;50.846;4.388;2022-08-01T03:37:24;20.70;99.90
14519;DHT22;7346;50.846;4.388;2022-08-01T03:39:57;20.80;99.90
14519;DHT22;7346;50.846;4.388;2022-08-01T03:42:28;20.90;99.90
14519;DHT22;7346;50.846;4.388;2022-08-01T03:45:01;20.80;99.90
14519;DHT22;7346;50.846;4.388;2022-08-01T03:47:31;20.60;99.90
14519;DHT22;7346;50.846;4.388;2022-08-01T03:50:02;20.50;99.90
14519;DHT22;7346;50.846;4.388;2022-08-01T03:52:30;20.40;99.90
14519;DHT22;7346;50.846;4.388;2022-08-01T03:55:03;20.40;99.90
14519;DHT22;7346;50.846;4.388;2022-08-01T03:57:33;20.40;99.90
14519;DHT22;7346;50.846;4.388;2022-08-01T04:00:01;20.40;99.90
14519;DHT22;7346;50.846;4.388;2022-08-01T04:02:32;20.20;99.90
14519;DHT22;7346;50.846;4.388;2022-08-01T04:04:59;20.10;99.90
14519;DHT22;7346;50.846;4.388;2022-08-01T04:07:29;20.10;99.90
14519;DHT22;7346;50.846;4.388;2022-08-01T04:09:56;20.00;99.90
14519;DHT22;7346;50.846;4.388;2022-08-01T04:12:24;20.00;99.90
14519;DHT22;7346;50.846;4.388;2022-08-01T04:14:51;20.00;99.90
14519;DHT22;7346;50.846;4.388;2022-08-01T04:17:18;20.20;99.90
14519;DHT22;7346;50.846;4.388;2022-08-01T04:19:46;20.20;99.90
14519;DHT22;7346;50.846;4.388;2022-08-01T04:22:14;20.20;99.90
14519;DHT22;7346;50.846;4.388;2022-08-01T04:24:42;20.20;99.90
14519;DHT22;7346;50.846;4.388;2022-08-01T04:27:17;20.20;99.90
14519;DHT22;7346;50.846;4.388;2022-08-01T04:29:48;20.40;99.90
14519;DHT22;7346;50.846;4.388;2022-08-01T04:32:18;20.60;99.90
14519;DHT22;7346;50.846;4.388;2022-08-01T04:34:48;20.50;99.90
14519;DHT22;7346;50.846;4.388;2022-08-01T04:37:17;20.50;99.90
14519;DHT22;7346;50.846;4.388;2022-08-01T04:39:46;20.40;99.90
14519;DHT22;7346;50.846;4.388;2022-08-01T04:42:14;20.60;99.90
14519;DHT22;7346;50.846;4.388;2022-08-01T04:44:41;20.70;99.90
14519;DHT22;7346;50.846;4.388;2022-08-01T04:47:10;20.80;99.90
14519;DHT22;7346;50.846;4.388;2022-08-01T04:49:38;20.70;99.90
14519;DHT22;7346;50.846;4.388;2022-08-01T04:52:06;20.60;99.90
14519;DHT22;7346;50.846;4.388;2022-08-01T04:54:35;20.60;99.90
14519;DHT22;7346;50.846;4.388;2022-08-01T04:57:04;20.70;99.90
14519;DHT22;7346;50.846;4.388;2022-08-01T04:59:32;20.60;99.90
14519;DHT22;7346;50.846;4.388;2022-08-01T05:02:07;20.60;99.90
14519;DHT22;7346;50.846;4.388;2022-08-01T05:04:37;20.40;99.90
14519;DHT22;7346;50.846;4.388;2022-08-01T05:07:04;20.60;99.90
14519;DHT22;7346;50.846;4.388;2022-08-01T05:09:31;20.70;99.90
14519;DHT22;7346;50.846;4.388;2022-08-01T05:11:58;20.70;99.90
14519;DHT22;7346;50.846;4.388;2022-08-01T05:14:27;20.70;99.90
14519;DHT22;7346;50.846;4.388;2022-08-01T05:16:57;20.80;99.90
14519;DHT22;7346;50.846;4.388;2022-08-01T05:19:25;20.80;99.90
14519;DHT22;7346;50.846;4.388;2022-08-01T05:21:54;20.90;99.90
14519;DHT22;7346;50.846;4.388;2022-08-01T05:24:22;21.10;99.90
14519;DHT22;7346;50.846;4.388;2022-08-01T05:26:50;21.10;99.90
14519;DHT22;7346;50.846;4.388;2022-08-01T05:29:17;21.30;99.90
14519;DHT22;7346;50.846;4.388;2022-08-01T05:31:44;21.00;99.90
14519;DHT22;7346;50.846;4.388;2022-08-01T05:34:11;20.90;99.90
14519;DHT22;7346;50.846;4.388;2022-08-01T05:36:38;20.80;99.90
14519;DHT22;7346;50.846;4.388;2022-08-01T05:39:06;20.80;99.90
14519;DHT22;7346;50.846;4.388;2022-08-01T05:41:33;20.90;99.90
14519;DHT22;7346;50.846;4.388;2022-08-01T05:44:01;21.00;99.90
14519;DHT22;7346;50.846;4.388;2022-08-01T05:46:28;21.20;99.90
14519;DHT22;7346;50.846;4.388;2022-08-01T05:48:56;21.20;99.90
14519;DHT22;7346;50.846;4.388;2022-08-01T05:51:23;21.30;99.90
14519;DHT22;7346;50.846;4.388;2022-08-01T05:53:50;21.30;99.90
14519;DHT22;7346;50.846;4.388;2022-08-01T05:56:18;21.40;99.90
14519;DHT22;7346;50.846;4.388;2022-08-01T05:58:45;21.50;99.90
14519;DHT22;7346;50.846;4.388;2022-08-01T06:01:12;21.70;99.90
14519;DHT22;7346;50.846;4.388;2022-08-01T06:03:39;21.60;99.90
14519;DHT22;7346;50.846;4.388;2022-08-01T06:06:06;21.70;99.90
14519;DHT22;7346;50.846;4.388;2022-08-01T06:08:33;21.50;99.90
14519;DHT22;7346;50.846;4.388;2022-08-01T06:11:00;21.50;99.90
14519;DHT22;7346;50.846;4.388;2022-08-01T06:13:28;21.60;99.90
14519;DHT22;7346;50.846;4.388;2022-08-01T06:15:55;21.50;99.90
14519;DHT22;7346;50.846;4.388;2022-08-01T06:18:22;21.40;99.90
14519;DHT22;7346;50.846;4.388;2022-08-01T06:20:51;21.50;99.90
14519;DHT22;7346;50.846;4.388;2022-08-01T06:23:20;21.50;99.90
14519;DHT22;7346;50.846;4.388;2022-08-01T06:25:47;21.60;99.90
14519;DHT22;7346;50.846;4.388;2022-08-01T06:28:16;21.70;99.90
14519;DHT22;7346;50.846;4.388;2022-08-01T06:30:45;21.80;99.90
14519;DHT22;7346;50.846;4.388;2022-08-01T06:33:12;21.80;99.90
14519;DHT22;7346;50.846;4.388;2022-08-01T06:35:41;22.00;99.90
14519;DHT22;7346;50.846;4.388;2022-08-01T06:38:08;22.00;99.90
14519;DHT22;7346;50.846;4.388;2022-08-01T06:40:35;22.00;99.90
14519;DHT22;7346;50.846;4.388;2022-08-01T06:43:03;22.20;99.90
14519;DHT22;7346;50.846;4.388;2022-08-01T06:45:30;22.30;99.90
14519;DHT22;7346;50.846;4.388;2022-08-01T06:47:58;22.20;99.90
14519;DHT22;7346;50.846;4.388;2022-08-01T06:50:25;22.50;99.90
14519;DHT22;7346;50.846;4.388;2022-08-01T06:52:52;22.50;99.90
14519;DHT22;7346;50.846;4.388;2022-08-01T06:55:19;22.70;99.90
14519;DHT22;7346;50.846;4.388;2022-08-01T06:57:48;23.00;99.90
14519;DHT22;7346;50.846;4.388;2022-08-01T07:00:16;23.30;99.90
14519;DHT22;7346;50.846;4.388;2022-08-01T07:02:46;23.40;99.90
14519;DHT22;7346;50.846;4.388;2022-08-01T07:05:15;23.70;99.90
14519;DHT22;7346;50.846;4.388;2022-08-01T07:07:42;23.70;99.90
14519;DHT22;7346;50.846;4.388;2022-08-01T07:10:09;23.70;99.90
14519;DHT22;7346;50.846;4.388;2022-08-01T07:12:37;23.80;99.90
14519;DHT22;7346;50.846;4.388;2022-08-01T07:15:05;23.70;99.90
14519;DHT22;7346;50.846;4.388;2022-08-01T07:17:32;23.80;99.90
14519;DHT22;7346;50.846;4.388;2022-08-01T07:20:03;23.80;99.90
14519;DHT22;7346;50.846;4.388;2022-08-01T07:22:31;23.70;99.90
14519;DHT22;7346;50.846;4.388;2022-08-01T07:24:58;23.50;99.90
14519;DHT22;7346;50.846;4.388;2022-08-01T07:27:28;23.50;99.90
14519;DHT22;7346;50.846;4.388;2022-08-01T07:29:55;23.60;99.90
14519;DHT22;7346;50.846;4.388;2022-08-01T07:32:21;23.70;99.90
14519;DHT22;7346;50.846;4.388;2022-08-01T07:34:48;23.60;99.90
14519;DHT22;7346;50.846;4.388;2022-08-01T07:37:15;23.60;99.90
14519;DHT22;7346;50.846;4.388;2022-08-01T07:39:44;23.70;99.90
14519;DHT22;7346;50.846;4.388;2022-08-01T07:42:10;23.80;99.90
14519;DHT22;7346;50.846;4.388;2022-08-01T07:44:37;23.70;99.90
14519;DHT22;7346;50.846;4.388;2022-08-01T07:47:05;23.40;99.90
14519;DHT22;7346;50.846;4.388;2022-08-01T07:49:32;23.50;99.90
14519;DHT22;7346;50.846;4.388;2022-08-01T07:51:59;23.70;99.90
14519;DHT22;7346;50.846;4.388;2022-08-01T07:54:26;23.50;99.90
14519;DHT22;7346;50.846;4.388;2022-08-01T07:56:54;23.50;99.90
14519;DHT22;7346;50.846;4.388;2022-08-01T07:59:21;23.60;99.90
14519;DHT22;7346;50.846;4.388;2022-08-01T08:01:49;23.60;99.90
14519;DHT22;7346;50.846;4.388;2022-08-01T08:04:17;23.80;99.90
14519;DHT22;7346;50.846;4.388;2022-08-01T08:06:44;23.80;99.90
14519;DHT22;7346;50.846;4.388;2022-08-01T08:09:13;24.00;99.90
14519;DHT22;7346;50.846;4.388;2022-08-01T08:11:42;24.00;99.90
14519;DHT22;7346;50.846;4.388;2022-08-01T08:14:10;24.10;99.90
14519;DHT22;7346;50.846;4.388;2022-08-01T08:16:37;24.40;99.90
14519;DHT22;7346;50.846;4.388;2022-08-01T08:19:04;24.60;99.90
14519;DHT22;7346;50.846;4.388;2022-08-01T08:21:31;25.20;99.90
14519;DHT22;7346;50.846;4.388;2022-08-01T08:23:58;25.50;99.90
14519;DHT22;7346;50.846;4.388;2022-08-01T08:26:42;25.50;99.90
14519;DHT22;7346;50.846;4.388;2022-08-01T08:29:10;25.30;99.90
14519;DHT22;7346;50.846;4.388;2022-08-01T08:31:38;25.00;99.90
14519;DHT22;7346;50.846;4.388;2022-08-01T08:34:05;24.90;99.90
14519;DHT22;7346;50.846;4.388;2022-08-01T08:36:32;24.80;99.90
14519;DHT22;7346;50.846;4.388;2022-08-01T08:38:59;24.70;99.90
14519;DHT22;7346;50.846;4.388;2022-08-01T08:41:28;24.70;99.90
14519;DHT22;7346;50.846;4.388;2022-08-01T08:43:55;25.00;99.90
14519;DHT22;7346;50.846;4.388;2022-08-01T08:46:25;25.10;99.90
14519;DHT22;7346;50.846;4.388;2022-08-01T08:48:53;24.90;99.90
14519;DHT22;7346;50.846;4.388;2022-08-01T08:51:21;25.00;99.90
14519;DHT22;7346;50.846;4.388;2022-08-01T08:53:51;25.10;99.90
14519;DHT22;7346;50.846;4.388;2022-08-01T08:56:20;25.00;99.90
14519;DHT22;7346;50.846;4.388;2022-08-01T08:58:48;24.80;99.90
14519;DHT22;7346;50.846;4.388;2022-08-01T09:01:17;24.80;99.90
14519;DHT22;7346;50.846;4.388;2022-08-01T09:03:45;25.00;99.90
14519;DHT22;7346;50.846;4.388;2022-08-01T09:06:12;25.50;99.90
14519;DHT22;7346;50.846;4.388;2022-08-01T09:08:40;25.80;99.90
14519;DHT22;7346;50.846;4.388;2022-08-01T09:11:07;25.90;99.90
14519;DHT22;7346;50.846;4.388;2022-08-01T09:13:34;25.80;99.90
14519;DHT22;7346;50.846;4.388;2022-08-01T09:16:01;25.70;99.90
14519;DHT22;7346;50.846;4.388;2022-08-01T09:18:30;25.50;99.90
14519;DHT22;7346;50.846;4.388;2022-08-01T09:21:13;25.50;99.90
14519;DHT22;7346;50.846;4.388;2022-08-01T09:23:41;25.30;99.90
14519;DHT22;7346;50.846;4.388;2022-08-01T09:26:10;25.30;99.90
14519;DHT22;7346;50.846;4.388;2022-08-01T09:28:37;25.10;99.90
14519;DHT22;7346;50.846;4.388;2022-08-01T09:31:09;24.90;99.90
14519;DHT22;7346;50.846;4.388;2022-08-01T09:33:55;24.80;99.90
14519;DHT22;7346;50.846;4.388;2022-08-01T09:36:25;25.00;99.90
14519;DHT22;7346;50.846;4.388;2022-08-01T09:38:54;25.10;99.90
14519;DHT22;7346;50.846;4.388;2022-08-01T09:41:29;25.00;99.90
14519;DHT22;7346;50.846;4.388;2022-08-01T09:43:56;25.00;99.90
14519;DHT22;7346;50.846;4.388;2022-08-01T09:46:24;25.10;99.90
14519;DHT22;7346;50.846;4.388;2022-08-01T09:48:59;25.10;99.90
14519;DHT22;7346;50.846;4.388;2022-08-01T09:51:35;25.00;99.90
14519;DHT22;7346;50.846;4.388;2022-08-01T09:54:04;24.90;99.90
14519;DHT22;7346;50.846;4.388;2022-08-01T09:56:39;25.00;99.90
14519;DHT22;7346;50.846;4.388;2022-08-01T09:59:08;25.20;99.90
14519;DHT22;7346;50.846;4.388;2022-08-01T10:01:44;25.30;99.90
14519;DHT22;7346;50.846;4.388;2022-08-01T10:04:13;25.70;99.90
14519;DHT22;7346;50.846;4.388;2022-08-01T10:06:42;26.20;99.90
14519;DHT22;7346;50.846;4.388;2022-08-01T10:09:11;26.40;99.90
14519;DHT22;7346;50.846;4.388;2022-08-01T10:11:40;26.60;99.90
14519;DHT22;7346;50.846;4.388;2022-08-01T10:14:08;27.00;99.90
14519;DHT22;7346;50.846;4.388;2022-08-01T10:16:39;27.30;99.90
14519;DHT22;7346;50.846;4.388;2022-08-01T10:19:07;27.10;99.90
14519;DHT22;7346;50.846;4.388;2022-08-01T10:21:34;26.60;99.90
14519;DHT22;7346;50.846;4.388;2022-08-01T10:24:05;26.70;99.90
14519;DHT22;7346;50.846;4.388;2022-08-01T10:26:34;27.00;99.90
14519;DHT22;7346;50.846;4.388;2022-08-01T10:29:01;27.00;99.90
14519;DHT22;7346;50.846;4.388;2022-08-01T10:31:29;26.90;99.90
14519;DHT22;7346;50.846;4.388;2022-08-01T10:33:59;26.90;99.90
14519;DHT22;7346;50.846;4.388;2022-08-01T10:36:27;26.60;99.90
14519;DHT22;7346;50.846;4.388;2022-08-01T10:38:55;26.90;99.90
14519;DHT22;7346;50.846;4.388;2022-08-01T10:41:24;26.90;99.90
14519;DHT22;7346;50.846;4.388;2022-08-01T10:43:52;26.70;99.90
14519;DHT22;7346;50.846;4.388;2022-08-01T10:46:19;27.00;99.90
14519;DHT22;7346;50.846;4.388;2022-08-01T10:48:55;26.80;99.90
14519;DHT22;7346;50.846;4.388;2022-08-01T10:51:23;26.80;99.90
14519;DHT22;7346;50.846;4.388;2022-08-01T10:53:52;27.10;99.90
14519;DHT22;7346;50.846;4.388;2022-08-01T10:56:19;27.10;99.90
14519;DHT22;7346;50.846;4.388;2022-08-01T10:58:49;26.60;99.90
14519;DHT22;7346;50.846;4.388;2022-08-01T11:01:22;26.60;99.90
14519;DHT22;7346;50.846;4.388;2022-08-01T11:04:02;26.60;99.90
14519;DHT22;7346;50.846;4.388;2022-08-01T11:06:41;26.90;99.90
14519;DHT22;7346;50.846;4.388;2022-08-01T11:09:30;27.00;99.90
14519;DHT22;7346;50.846;4.388;2022-08-01T11:12:00;26.90;99.90
14519;DHT22;7346;50.846;4.388;2022-08-01T11:14:31;27.00;99.90
14519;DHT22;7346;50.846;4.388;2022-08-01T11:17:31;27.10;99.90
14519;DHT22;7346;50.846;4.388;2022-08-01T11:20:06;26.90;99.90
14519;DHT22;7346;50.846;4.388;2022-08-01T11:26:23;27.00;99.90
14519;DHT22;7346;50.846;4.388;2022-08-01T11:29:14;27.10;99.90
14519;DHT22;7346;50.846;4.388;2022-08-01T11:31:43;27.00;99.90
14519;DHT22;7346;50.846;4.388;2022-08-01T11:34:10;26.90;99.90
14519;DHT22;7346;50.846;4.388;2022-08-01T11:36:37;27.20;99.90
14519;DHT22;7346;50.846;4.388;2022-08-01T11:39:18;27.10;99.90
14519;DHT22;7346;50.846;4.388;2022-08-01T11:41:47;27.00;99.90
14519;DHT22;7346;50.846;4.388;2022-08-01T11:44:16;27.10;99.90
14519;DHT22;7346;50.846;4.388;2022-08-01T11:46:56;27.20;99.90
14519;DHT22;7346;50.846;4.388;2022-08-01T11:49:30;26.90;99.90
14519;DHT22;7346;50.846;4.388;2022-08-01T11:52:00;26.90;99.90
14519;DHT22;7346;50.846;4.388;2022-08-01T11:54:28;26.60;99.90
14519;DHT22;7346;50.846;4.388;2022-08-01T11:56:56;26.70;99.90
14519;DHT22;7346;50.846;4.388;2022-08-01T11:59:23;26.60;99.90
14519;DHT22;7346;50.846;4.388;2022-08-01T12:01:52;26.50;99.90
14519;DHT22;7346;50.846;4.388;2022-08-01T12:04:19;26.50;99.90
14519;DHT22;7346;50.846;4.388;2022-08-01T12:06:46;26.40;99.90
14519;DHT22;7346;50.846;4.388;2022-08-01T12:09:20;26.60;99.90
14519;DHT22;7346;50.846;4.388;2022-08-01T12:11:48;26.60;99.90
14519;DHT22;7346;50.846;4.388;2022-08-01T12:14:21;26.70;99.90
14519;DHT22;7346;50.846;4.388;2022-08-01T12:16:52;26.90;99.90
14519;DHT22;7346;50.846;4.388;2022-08-01T12:19:21;26.90;99.90
14519;DHT22;7346;50.846;4.388;2022-08-01T12:22:07;27.30;99.90
14519;DHT22;7346;50.846;4.388;2022-08-01T12:24:35;27.30;99.90
14519;DHT22;7346;50.846;4.388;2022-08-01T12:27:03;27.30;99.90
14519;DHT22;7346;50.846;4.388;2022-08-01T12:29:37;26.90;99.90
14519;DHT22;7346;50.846;4.388;2022-08-01T12:32:21;27.30;99.90
14519;DHT22;7346;50.846;4.388;2022-08-01T12:34:48;27.50;99.90
14519;DHT22;7346;50.846;4.388;2022-08-01T12:37:16;27.70;99.90
14519;DHT22;7346;50.846;4.388;2022-08-01T12:39:44;27.80;99.90
14519;DHT22;7346;50.846;4.388;2022-08-01T12:42:11;27.70;99.90
14519;DHT22;7346;50.846;4.388;2022-08-01T12:44:39;27.70;99.90
14519;DHT22;7346;50.846;4.388;2022-08-01T12:47:08;27.50;99.90
14519;DHT22;7346;50.846;4.388;2022-08-01T12:49:37;27.70;99.90
14519;DHT22;7346;50.846;4.388;2022-08-01T12:52:05;27.50;99.90
14519;DHT22;7346;50.846;4.388;2022-08-01T12:55:06;27.50;99.90
14519;DHT22;7346;50.846;4.388;2022-08-01T12:57:34;27.50;99.90
14519;DHT22;7346;50.846;4.388;2022-08-01T13:00:06;27.60;99.90
14519;DHT22;7346;50.846;4.388;2022-08-01T13:02:35;27.60;99.90
14519;DHT22;7346;50.846;4.388;2022-08-01T13:05:03;27.80;99.90
14519;DHT22;7346;50.846;4.388;2022-08-01T13:07:42;27.80;99.90
14519;DHT22;7346;50.846;4.388;2022-08-01T13:10:09;27.90;99.90
14519;DHT22;7346;50.846;4.388;2022-08-01T13:12:38;28.00;99.90
14519;DHT22;7346;50.846;4.388;2022-08-01T13:15:19;27.90;99.90
14519;DHT22;7346;50.846;4.388;2022-08-01T13:17:48;28.00;99.90
14519;DHT22;7346;50.846;4.388;2022-08-01T13:20:23;28.10;99.90
14519;DHT22;7346;50.846;4.388;2022-08-01T13:22:50;27.80;99.90
14519;DHT22;7346;50.846;4.388;2022-08-01T13:25:17;27.90;99.90
14519;DHT22;7346;50.846;4.388;2022-08-01T13:27:44;27.90;99.90
14519;DHT22;7346;50.846;4.388;2022-08-01T13:30:13;27.80;99.90
14519;DHT22;7346;50.846;4.388;2022-08-01T13:32:41;27.70;99.90
14519;DHT22;7346;50.846;4.388;2022-08-01T13:35:12;27.70;99.90
14519;DHT22;7346;50.846;4.388;2022-08-01T13:37:41;27.50;99.90
14519;DHT22;7346;50.846;4.388;2022-08-01T13:40:10;27.50;99.90
14519;DHT22;7346;50.846;4.388;2022-08-01T13:42:38;27.30;99.90
14519;DHT22;7346;50.846;4.388;2022-08-01T13:45:06;27.10;99.90
14519;DHT22;7346;50.846;4.388;2022-08-01T13:47:36;27.00;99.90
14519;DHT22;7346;50.846;4.388;2022-08-01T13:50:05;26.90;99.90
14519;DHT22;7346;50.846;4.388;2022-08-01T13:52:33;27.00;99.90
14519;DHT22;7346;50.846;4.388;2022-08-01T13:55:00;27.30;99.90
14519;DHT22;7346;50.846;4.388;2022-08-01T13:57:28;27.40;99.90
14519;DHT22;7346;50.846;4.388;2022-08-01T13:59:55;27.50;99.90
14519;DHT22;7346;50.846;4.388;2022-08-01T14:02:25;27.70;99.90
14519;DHT22;7346;50.846;4.388;2022-08-01T14:04:52;27.50;99.90
14519;DHT22;7346;50.846;4.388;2022-08-01T14:07:19;27.50;99.90
14519;DHT22;7346;50.846;4.388;2022-08-01T14:09:48;27.60;99.90
14519;DHT22;7346;50.846;4.388;2022-08-01T14:12:15;27.80;99.90
14519;DHT22;7346;50.846;4.388;2022-08-01T14:14:42;27.50;99.90
14519;DHT22;7346;50.846;4.388;2022-08-01T14:17:09;27.50;99.90
14519;DHT22;7346;50.846;4.388;2022-08-01T14:19:35;27.50;99.90
14519;DHT22;7346;50.846;4.388;2022-08-01T14:22:02;27.60;99.90
14519;DHT22;7346;50.846;4.388;2022-08-01T14:24:29;27.70;99.90
14519;DHT22;7346;50.846;4.388;2022-08-01T14:26:58;27.70;99.90
14519;DHT22;7346;50.846;4.388;2022-08-01T14:29:25;28.00;99.90
14519;DHT22;7346;50.846;4.388;2022-08-01T14:31:52;28.30;99.90
14519;DHT22;7346;50.846;4.388;2022-08-01T14:34:19;28.30;99.90
14519;DHT22;7346;50.846;4.388;2022-08-01T14:36:46;28.20;99.90
14519;DHT22;7346;50.846;4.388;2022-08-01T14:39:12;28.30;99.90
14519;DHT22;7346;50.846;4.388;2022-08-01T14:41:39;28.30;99.90
14519;DHT22;7346;50.846;4.388;2022-08-01T14:44:08;28.60;99.90
14519;DHT22;7346;50.846;4.388;2022-08-01T14:46:35;28.90;99.90
14519;DHT22;7346;50.846;4.388;2022-08-01T14:49:02;29.20;99.20
14519;DHT22;7346;50.846;4.388;2022-08-01T14:51:29;29.50;98.70
14519;DHT22;7346;50.846;4.388;2022-08-01T14:53:58;30.50;97.90
14519;DHT22;7346;50.846;4.388;2022-08-01T14:56:25;31.40;96.70
14519;DHT22;7346;50.846;4.388;2022-08-01T14:58:52;32.40;95.20
14519;DHT22;7346;50.846;4.388;2022-08-01T15:01:20;33.60;93.80
14519;DHT22;7346;50.846;4.388;2022-08-01T15:03:47;33.60;92.00
14519;DHT22;7346;50.846;4.388;2022-08-01T15:06:16;33.20;91.70
14519;DHT22;7346;50.846;4.388;2022-08-01T15:08:43;33.50;90.90
14519;DHT22;7346;50.846;4.388;2022-08-01T15:11:10;33.90;90.70
14519;DHT22;7346;50.846;4.388;2022-08-01T15:13:37;34.20;90.10
14519;DHT22;7346;50.846;4.388;2022-08-01T15:16:04;34.50;88.70
14519;DHT22;7346;50.846;4.388;2022-08-01T15:18:33;33.50;88.60
14519;DHT22;7346;50.846;4.388;2022-08-01T15:20:59;33.80;87.70
14519;DHT22;7346;50.846;4.388;2022-08-01T15:23:27;34.10;87.00
14519;DHT22;7346;50.846;4.388;2022-08-01T15:25:54;34.60;85.50
14519;DHT22;7346;50.846;4.388;2022-08-01T15:28:21;34.90;83.80
14519;DHT22;7346;50.846;4.388;2022-08-01T15:30:48;34.90;82.70
14519;DHT22;7346;50.846;4.388;2022-08-01T15:33:14;34.80;82.40
14519;DHT22;7346;50.846;4.388;2022-08-01T15:35:43;34.90;81.60
14519;DHT22;7346;50.846;4.388;2022-08-01T15:38:10;35.40;79.80
14519;DHT22;7346;50.846;4.388;2022-08-01T15:40:37;34.10;80.30
14519;DHT22;7346;50.846;4.388;2022-08-01T15:43:04;33.00;81.80
14519;DHT22;7346;50.846;4.388;2022-08-01T15:45:31;32.50;82.10
14519;DHT22;7346;50.846;4.388;2022-08-01T15:47:58;32.30;83.00
14519;DHT22;7346;50.846;4.388;2022-08-01T15:50:25;31.30;84.80
14519;DHT22;7346;50.846;4.388;2022-08-01T15:52:53;30.80;86.80
14519;DHT22;7346;50.846;4.388;2022-08-01T15:55:20;30.60;87.60
14519;DHT22;7346;50.846;4.388;2022-08-01T15:57:47;30.30;88.20
14519;DHT22;7346;50.846;4.388;2022-08-01T16:00:14;30.20;89.40
14519;DHT22;7346;50.846;4.388;2022-08-01T16:02:41;29.40;90.10